CCA127 RKSI-ZBAD
Flight info
| Callsign | CCA127 |
|---|---|
| Flight time | N/A |
| Altitude | 21700 |
| Route | NOPIK2A NOPIK Y697 AGAVO/K0720S0660 A591 IKEKA W4 FZ/K0835S1160 W4 HCH W200 DOVIV W55 DUMAP DUMAP5L |
| Aircraft | A21N/M-SDE2E3FGHIRWXY/LB1 |
Departure
| Time | 2026-05-04 13:05 |
|---|---|
| Airport | Incheon International Airport (RKSI) |
Arrival
| Time | N/A |
|---|---|
| Airport | Beijing Daxing International Airport (ZBAD) |
| Time | Latitude | Longitude | Altitude | Speed | Heading |
|---|---|---|---|---|---|
| 2026-05-04 12:31 | 37.46193 | 126.43467 | 26 ft | 0 kts | 323° |
| 2026-05-04 12:49 | 37.46192 | 126.43468 | -1 ft | 3 kts | 323° |
| 2026-05-04 12:49 | 37.46153 | 126.43505 | 27 ft | 4 kts | 317° |
| 2026-05-04 12:49 | 37.46136 | 126.43530 | 30 ft | 3 kts | 296° |
| 2026-05-04 12:49 | 37.46132 | 126.43551 | 30 ft | 2 kts | 263° |
| 2026-05-04 12:50 | 37.46135 | 126.43564 | 29 ft | 2 kts | 242° |
| 2026-05-04 12:50 | 37.46137 | 126.43568 | 29 ft | 0 kts | 236° |
| 2026-05-04 12:52 | 37.46111 | 126.43519 | 30 ft | 10 kts | 236° |
| 2026-05-04 12:53 | 37.46070 | 126.43441 | 26 ft | 12 kts | 234° |
| 2026-05-04 12:53 | 37.46017 | 126.43352 | 26 ft | 14 kts | 231° |
| 2026-05-04 12:53 | 37.45956 | 126.43252 | 26 ft | 15 kts | 233° |
| 2026-05-04 12:53 | 37.45871 | 126.43237 | 28 ft | 14 kts | 154° |
| 2026-05-04 12:54 | 37.45787 | 126.43306 | 26 ft | 15 kts | 144° |
| 2026-05-04 12:54 | 37.45695 | 126.43390 | 28 ft | 17 kts | 144° |
| 2026-05-04 12:54 | 37.45590 | 126.43482 | 28 ft | 19 kts | 145° |
| 2026-05-04 12:54 | 37.45500 | 126.43562 | 26 ft | 16 kts | 145° |
| 2026-05-04 12:55 | 37.45402 | 126.43648 | 27 ft | 18 kts | 145° |
| 2026-05-04 12:55 | 37.45293 | 126.43746 | 27 ft | 20 kts | 143° |
| 2026-05-04 12:55 | 37.45175 | 126.43857 | 28 ft | 22 kts | 143° |
| 2026-05-04 12:55 | 37.45055 | 126.43962 | 28 ft | 20 kts | 146° |
| 2026-05-04 12:56 | 37.44974 | 126.44030 | 28 ft | 22 kts | 146° |
| 2026-05-04 12:56 | 37.44840 | 126.44148 | 30 ft | 0 kts | 145° |
| 2026-05-04 12:56 | 37.44816 | 126.44169 | 28 ft | 6 kts | 145° |
| 2026-05-04 12:56 | 37.44788 | 126.44193 | 27 ft | 8 kts | 145° |
| 2026-05-04 12:57 | 37.44767 | 126.44212 | 28 ft | 3 kts | 145° |
| 2026-05-04 12:57 | 37.44753 | 126.44225 | 28 ft | 5 kts | 145° |
| 2026-05-04 12:57 | 37.44716 | 126.44258 | 25 ft | 8 kts | 144° |
| 2026-05-04 12:57 | 37.44664 | 126.44305 | 28 ft | 7 kts | 144° |
| 2026-05-04 12:58 | 37.44662 | 126.44307 | 26 ft | 3 kts | 144° |
| 2026-05-04 12:58 | 37.44621 | 126.44344 | 25 ft | 9 kts | 147° |
| 2026-05-04 12:58 | 37.44578 | 126.44352 | 26 ft | 5 kts | 199° |
| 2026-05-04 12:58 | 37.44559 | 126.44331 | 30 ft | 4 kts | 227° |
| 2026-05-04 12:59 | 37.44536 | 126.44295 | 26 ft | 7 kts | 233° |
| 2026-05-04 12:59 | 37.44528 | 126.44280 | 27 ft | 0 kts | 234° |
| 2026-05-04 13:04 | 37.44519 | 126.44264 | 25 ft | 7 kts | 234° |
| 2026-05-04 13:04 | 37.44486 | 126.44205 | 24 ft | 10 kts | 235° |
| 2026-05-04 13:04 | 37.44455 | 126.44120 | 26 ft | 11 kts | 267° |
| 2026-05-04 13:04 | 37.44475 | 126.44056 | 27 ft | 5 kts | 327° |
| 2026-05-04 13:05 | 37.44720 | 126.43845 | 26 ft | 88 kts | 324° |
| 2026-05-04 13:05 | 37.45471 | 126.43190 | 97 ft | 164 kts | 325° |
| 2026-05-04 13:05 | 37.46459 | 126.42291 | 477 ft | 191 kts | 328° |
| 2026-05-04 13:05 | 37.47472 | 126.41016 | 850 ft | 223 kts | 330° |
| 2026-05-04 13:06 | 37.48815 | 126.39717 | 1069 ft | 263 kts | 325° |
| 2026-05-04 13:06 | 37.50215 | 126.38002 | 1325 ft | 298 kts | 310° |
| 2026-05-04 13:06 | 37.51214 | 126.35618 | 1624 ft | 324 kts | 289° |
| 2026-05-04 13:06 | 37.51492 | 126.32906 | 1868 ft | 306 kts | 272° |
| 2026-05-04 13:07 | 37.51375 | 126.30269 | 2109 ft | 298 kts | 271° |
| 2026-05-04 13:07 | 37.51280 | 126.27674 | 2340 ft | 297 kts | 273° |
| 2026-05-04 13:07 | 37.51249 | 126.25076 | 2565 ft | 297 kts | 274° |
| 2026-05-04 13:07 | 37.51261 | 126.22466 | 2796 ft | 298 kts | 275° |
| 2026-05-04 13:08 | 37.51243 | 126.19848 | 3001 ft | 301 kts | 269° |
| 2026-05-04 13:08 | 37.50727 | 126.17290 | 3231 ft | 306 kts | 250° |
| 2026-05-04 13:08 | 37.49684 | 126.14951 | 3474 ft | 306 kts | 243° |
| 2026-05-04 13:08 | 37.48523 | 126.12712 | 3702 ft | 306 kts | 242° |
| 2026-05-04 13:09 | 37.47345 | 126.10481 | 3933 ft | 306 kts | 242° |
| 2026-05-04 13:09 | 37.46178 | 126.08267 | 4158 ft | 307 kts | 242° |
| 2026-05-04 13:09 | 37.44994 | 126.06019 | 4387 ft | 309 kts | 242° |
| 2026-05-04 13:09 | 37.43808 | 126.03759 | 4627 ft | 310 kts | 242° |
| 2026-05-04 13:10 | 37.42614 | 126.01480 | 4854 ft | 313 kts | 242° |
| 2026-05-04 13:10 | 37.41583 | 125.99087 | 5094 ft | 310 kts | 254° |
| 2026-05-04 13:10 | 37.41151 | 125.96452 | 5319 ft | 308 kts | 271° |
| 2026-05-04 13:10 | 37.41094 | 125.93747 | 5534 ft | 312 kts | 274° |
| 2026-05-04 13:11 | 37.41092 | 125.91001 | 5753 ft | 315 kts | 274° |
| 2026-05-04 13:11 | 37.41081 | 125.88235 | 5993 ft | 317 kts | 274° |
| 2026-05-04 13:11 | 37.41061 | 125.85455 | 6230 ft | 318 kts | 274° |
| 2026-05-04 13:11 | 37.41034 | 125.82665 | 6456 ft | 320 kts | 274° |
| 2026-05-04 13:12 | 37.41004 | 125.79859 | 6685 ft | 321 kts | 274° |
| 2026-05-04 13:12 | 37.40971 | 125.77041 | 6904 ft | 323 kts | 274° |
| 2026-05-04 13:12 | 37.40937 | 125.74212 | 7124 ft | 324 kts | 274° |
| 2026-05-04 13:12 | 37.40903 | 125.71380 | 7345 ft | 325 kts | 274° |
| 2026-05-04 13:13 | 37.40866 | 125.68532 | 7564 ft | 327 kts | 274° |
| 2026-05-04 13:13 | 37.40829 | 125.65667 | 7796 ft | 328 kts | 274° |
| 2026-05-04 13:13 | 37.40841 | 125.62801 | 8026 ft | 328 kts | 277° |
| 2026-05-04 13:13 | 37.40990 | 125.59938 | 8253 ft | 328 kts | 280° |
| 2026-05-04 13:14 | 37.41236 | 125.57078 | 8482 ft | 330 kts | 282° |
| 2026-05-04 13:14 | 37.41521 | 125.54249 | 8706 ft | 331 kts | 282° |
| 2026-05-04 13:14 | 37.41829 | 125.51371 | 8931 ft | 333 kts | 283° |
| 2026-05-04 13:14 | 37.42149 | 125.48440 | 9176 ft | 334 kts | 283° |
| 2026-05-04 13:15 | 37.42467 | 125.45583 | 9404 ft | 335 kts | 283° |
| 2026-05-04 13:15 | 37.42873 | 125.42841 | 9631 ft | 335 kts | 287° |
| 2026-05-04 13:15 | 37.43419 | 125.40020 | 9866 ft | 336 kts | 290° |
| 2026-05-04 13:15 | 37.44048 | 125.37178 | 10084 ft | 338 kts | 291° |
| 2026-05-04 13:16 | 37.44710 | 125.34340 | 10301 ft | 339 kts | 291° |
| 2026-05-04 13:16 | 37.45392 | 125.31488 | 10516 ft | 341 kts | 291° |
| 2026-05-04 13:16 | 37.46084 | 125.28626 | 10732 ft | 342 kts | 291° |
| 2026-05-04 13:16 | 37.46783 | 125.25756 | 10955 ft | 344 kts | 291° |
| 2026-05-04 13:17 | 37.47490 | 125.22875 | 11179 ft | 345 kts | 291° |
| 2026-05-04 13:17 | 37.48193 | 125.19979 | 11396 ft | 347 kts | 291° |
| 2026-05-04 13:17 | 37.48845 | 125.17039 | 11619 ft | 349 kts | 289° |
| 2026-05-04 13:17 | 37.49439 | 125.14071 | 11843 ft | 350 kts | 288° |
| 2026-05-04 13:18 | 37.49999 | 125.11082 | 12065 ft | 351 kts | 287° |
| 2026-05-04 13:18 | 37.50540 | 125.08074 | 12298 ft | 353 kts | 287° |
| 2026-05-04 13:18 | 37.51073 | 125.05048 | 12527 ft | 354 kts | 287° |
| 2026-05-04 13:18 | 37.51599 | 125.02014 | 12756 ft | 355 kts | 286° |
| 2026-05-04 13:19 | 37.52122 | 124.98969 | 12987 ft | 357 kts | 286° |
| 2026-05-04 13:19 | 37.52640 | 124.95914 | 13225 ft | 356 kts | 286° |
| 2026-05-04 13:19 | 37.53157 | 124.92889 | 13460 ft | 358 kts | 286° |
| 2026-05-04 13:19 | 37.53682 | 124.89813 | 13693 ft | 361 kts | 286° |
| 2026-05-04 13:20 | 37.54210 | 124.86717 | 13924 ft | 363 kts | 286° |
| 2026-05-04 13:20 | 37.54734 | 124.83608 | 14137 ft | 363 kts | 286° |
| 2026-05-04 13:20 | 37.55259 | 124.80488 | 14350 ft | 364 kts | 286° |
| 2026-05-04 13:20 | 37.55785 | 124.77362 | 14563 ft | 366 kts | 286° |
| 2026-05-04 13:21 | 37.56324 | 124.74226 | 14786 ft | 366 kts | 287° |
| 2026-05-04 13:21 | 37.56988 | 124.71110 | 15001 ft | 368 kts | 291° |
| 2026-05-04 13:21 | 37.57777 | 124.68036 | 15209 ft | 369 kts | 293° |
| 2026-05-04 13:21 | 37.58640 | 124.64979 | 15437 ft | 371 kts | 294° |
| 2026-05-04 13:22 | 37.59623 | 124.61967 | 15678 ft | 369 kts | 304° |
| 2026-05-04 13:22 | 37.61086 | 124.59321 | 15867 ft | 372 kts | 308° |
| 2026-05-04 13:22 | 37.62272 | 124.56385 | 16091 ft | 380 kts | 294° |
| 2026-05-04 13:22 | 37.63099 | 124.53216 | 16337 ft | 380 kts | 291° |
| 2026-05-04 13:23 | 37.63902 | 124.50047 | 16569 ft | 379 kts | 293° |
| 2026-05-04 13:23 | 37.64832 | 124.46935 | 16804 ft | 379 kts | 296° |
| 2026-05-04 13:23 | 37.65883 | 124.43865 | 17024 ft | 382 kts | 298° |
| 2026-05-04 13:23 | 37.67000 | 124.40821 | 17258 ft | 384 kts | 299° |
| 2026-05-04 13:24 | 37.68155 | 124.37768 | 17494 ft | 386 kts | 300° |
| 2026-05-04 13:24 | 37.69312 | 124.34751 | 17726 ft | 387 kts | 300° |
| 2026-05-04 13:24 | 37.70498 | 124.31674 | 17965 ft | 389 kts | 300° |
| 2026-05-04 13:25 | 37.72883 | 124.25508 | 18432 ft | 392 kts | 300° |
| 2026-05-04 13:25 | 37.74082 | 124.22402 | 18645 ft | 394 kts | 300° |
| 2026-05-04 13:25 | 37.75280 | 124.19289 | 18852 ft | 395 kts | 300° |
| 2026-05-04 13:25 | 37.76475 | 124.16164 | 19064 ft | 395 kts | 300° |
| 2026-05-04 13:26 | 37.77670 | 124.13026 | 19288 ft | 396 kts | 300° |
| 2026-05-04 13:26 | 37.78860 | 124.09886 | 19495 ft | 397 kts | 300° |
| 2026-05-04 13:26 | 37.80050 | 124.06734 | 19713 ft | 398 kts | 300° |
| 2026-05-04 13:26 | 37.81235 | 124.03572 | 19947 ft | 398 kts | 300° |
| 2026-05-04 13:27 | 37.82412 | 124.00400 | 20147 ft | 399 kts | 300° |
| 2026-05-04 13:27 | 37.83588 | 123.97222 | 20379 ft | 400 kts | 300° |
| 2026-05-04 13:27 | 37.84769 | 123.94027 | 20600 ft | 401 kts | 300° |
| 2026-05-04 13:27 | 37.85943 | 123.90826 | 20821 ft | 401 kts | 300° |
| 2026-05-04 13:28 | 37.87109 | 123.87618 | 21052 ft | 402 kts | 300° |
| 2026-05-04 13:28 | 37.88266 | 123.84400 | 21282 ft | 403 kts | 300° |
| 2026-05-04 13:28 | 37.89425 | 123.81167 | 21515 ft | 404 kts | 300° |
| 2026-05-04 13:28 | 37.90594 | 123.77925 | 21744 ft | 405 kts | 301° |
| 2026-05-04 13:29 | 37.91753 | 123.74679 | 21977 ft | 406 kts | 300° |
| 2026-05-04 13:29 | 37.92907 | 123.71410 | 22213 ft | 406 kts | 300° |
| 2026-05-04 13:29 | 37.94046 | 123.68177 | 22458 ft | 408 kts | 300° |
| 2026-05-04 13:29 | 37.95205 | 123.64885 | 22693 ft | 409 kts | 300° |
| 2026-05-04 13:30 | 37.96367 | 123.61586 | 22935 ft | 411 kts | 300° |
| 2026-05-04 13:30 | 37.97524 | 123.58283 | 23187 ft | 412 kts | 300° |
| 2026-05-04 13:30 | 37.98680 | 123.54952 | 23422 ft | 413 kts | 300° |
| 2026-05-04 13:30 | 37.99821 | 123.51666 | 23621 ft | 414 kts | 300° |
| 2026-05-04 13:31 | 38.01004 | 123.48276 | 23658 ft | 415 kts | 300° |
| 2026-05-04 13:31 | 38.02170 | 123.44922 | 23651 ft | 416 kts | 300° |
| 2026-05-04 13:31 | 38.03332 | 123.41562 | 23644 ft | 416 kts | 300° |
| 2026-05-04 13:31 | 38.04491 | 123.38200 | 23653 ft | 416 kts | 300° |
| 2026-05-04 13:32 | 38.05651 | 123.34841 | 23650 ft | 416 kts | 300° |
| 2026-05-04 13:32 | 38.06814 | 123.31481 | 23649 ft | 416 kts | 300° |
| 2026-05-04 13:32 | 38.07975 | 123.28113 | 23643 ft | 416 kts | 300° |
| 2026-05-04 13:32 | 38.09133 | 123.24745 | 23638 ft | 416 kts | 300° |
| 2026-05-04 13:33 | 38.10291 | 123.21373 | 23639 ft | 416 kts | 300° |
| 2026-05-04 13:33 | 38.11449 | 123.18019 | 23638 ft | 416 kts | 300° |
| 2026-05-04 13:33 | 38.52305 | 122.27742 | 23584 ft | 17961 kts | 300° |
| 2026-05-04 13:33 | 38.53909 | 120.99982 | 23537 ft | 17961 kts | 322° |
| 2026-05-04 13:34 | 38.77141 | 120.64911 | 23524 ft | 17961 kts | 163° |
| 2026-05-04 13:34 | 39.01001 | 119.37785 | 23477 ft | 17961 kts | 284° |
| 2026-05-04 13:34 | 39.30224 | 117.81189 | 23419 ft | 17965 kts | 284° |
| 2026-05-04 13:34 | 39.41012 | 117.25320 | 23400 ft | 0 kts | 284° |
| 2026-05-04 13:35 | 39.41446 | 117.23240 | 23511 ft | 414 kts | 292° |
| 2026-05-04 13:35 | 39.43407 | 117.16263 | 23467 ft | 412 kts | 298° |
| 2026-05-04 13:35 | 39.44547 | 117.12863 | 23462 ft | 411 kts | 299° |
| 2026-05-04 13:36 | 39.45740 | 117.09498 | 23460 ft | 412 kts | 300° |
| 2026-05-04 13:36 | 39.46961 | 117.06148 | 23458 ft | 412 kts | 300° |
| 2026-05-04 13:36 | 39.48180 | 117.02849 | 23463 ft | 412 kts | 301° |
| 2026-05-04 13:36 | 39.49423 | 116.99507 | 23464 ft | 412 kts | 301° |
| 2026-05-04 13:37 | 39.50673 | 116.96157 | 23464 ft | 412 kts | 301° |
| 2026-05-04 13:37 | 39.51919 | 116.92824 | 23463 ft | 412 kts | 301° |
| 2026-05-04 13:37 | 39.53172 | 116.89474 | 23456 ft | 412 kts | 301° |
| 2026-05-04 13:37 | 39.54016 | 116.87217 | 23460 ft | 412 kts | 301° |
| 2026-05-04 13:38 | 39.55676 | 116.82796 | 23461 ft | 412 kts | 301° |
| 2026-05-04 13:38 | 39.56933 | 116.79462 | 23466 ft | 412 kts | 301° |
| 2026-05-04 13:38 | 39.58194 | 116.76128 | 23464 ft | 412 kts | 301° |
| 2026-05-04 13:38 | 39.59454 | 116.72798 | 23467 ft | 412 kts | 301° |
| 2026-05-04 13:39 | 39.60719 | 116.69460 | 23469 ft | 412 kts | 301° |
| 2026-05-04 13:39 | 39.61979 | 116.66132 | 23468 ft | 412 kts | 301° |
| 2026-05-04 13:39 | 39.63246 | 116.62789 | 23470 ft | 412 kts | 301° |
| 2026-05-04 13:39 | 39.64510 | 116.59456 | 23470 ft | 412 kts | 301° |
| 2026-05-04 13:40 | 39.65774 | 116.56127 | 23476 ft | 411 kts | 301° |
| 2026-05-04 13:40 | 39.67042 | 116.52807 | 23475 ft | 410 kts | 301° |
| 2026-05-04 13:40 | 39.68313 | 116.49494 | 23474 ft | 411 kts | 301° |
| 2026-05-04 13:40 | 39.69591 | 116.46173 | 23475 ft | 411 kts | 301° |
| 2026-05-04 13:41 | 39.70870 | 116.42857 | 23468 ft | 410 kts | 301° |
| 2026-05-04 13:41 | 39.72152 | 116.39535 | 23472 ft | 410 kts | 301° |
| 2026-05-04 13:41 | 39.73431 | 116.36220 | 23465 ft | 410 kts | 301° |
| 2026-05-04 13:42 | 39.75976 | 116.29634 | 23458 ft | 410 kts | 301° |
| 2026-05-04 13:42 | 39.77259 | 116.26315 | 23455 ft | 410 kts | 301° |
| 2026-05-04 13:42 | 39.78541 | 116.23000 | 23448 ft | 410 kts | 301° |
| 2026-05-04 13:42 | 39.79819 | 116.19692 | 23451 ft | 408 kts | 301° |
| 2026-05-04 13:43 | 39.81093 | 116.16400 | 23453 ft | 408 kts | 301° |
| 2026-05-04 13:43 | 39.82371 | 116.13100 | 23454 ft | 408 kts | 301° |
| 2026-05-04 13:43 | 39.83232 | 116.10880 | 23453 ft | 407 kts | 301° |
| 2026-05-04 13:43 | 39.84921 | 116.06525 | 23456 ft | 407 kts | 301° |
| 2026-05-04 13:44 | 39.86198 | 116.03239 | 23449 ft | 408 kts | 301° |
| 2026-05-04 13:44 | 39.87482 | 115.99941 | 23455 ft | 408 kts | 301° |
| 2026-05-04 13:44 | 39.88330 | 115.97765 | 23457 ft | 408 kts | 301° |
| 2026-05-04 13:44 | 39.89610 | 115.94473 | 23456 ft | 407 kts | 301° |
| 2026-05-04 13:45 | 39.91328 | 115.90083 | 23455 ft | 407 kts | 301° |
| 2026-05-04 13:45 | 39.92186 | 115.87915 | 23464 ft | 408 kts | 301° |
| 2026-05-04 13:45 | 39.93474 | 115.84622 | 23456 ft | 408 kts | 300° |
| 2026-05-04 13:45 | 39.94571 | 115.81184 | 23458 ft | 412 kts | 291° |
| 2026-05-04 13:46 | 39.95160 | 115.77530 | 23459 ft | 413 kts | 280° |
| 2026-05-04 13:46 | 39.95143 | 115.73778 | 23469 ft | 416 kts | 268° |
| 2026-05-04 13:46 | 39.94521 | 115.70099 | 23467 ft | 419 kts | 256° |
| 2026-05-04 13:46 | 39.93321 | 115.66627 | 23382 ft | 421 kts | 245° |
| 2026-05-04 13:47 | 39.91608 | 115.63539 | 23113 ft | 423 kts | 232° |
| 2026-05-04 13:47 | 39.89413 | 115.60962 | 22849 ft | 427 kts | 222° |
| 2026-05-04 13:47 | 39.86848 | 115.59016 | 22575 ft | 428 kts | 209° |
| 2026-05-04 13:47 | 39.84020 | 115.57805 | 22304 ft | 428 kts | 197° |
| 2026-05-04 13:48 | 39.81065 | 115.57383 | 22040 ft | 429 kts | 185° |
| 2026-05-04 13:48 | 39.78096 | 115.57753 | 21773 ft | 429 kts | 172° |
| 2026-05-04 13:48 | 39.75254 | 115.58925 | 21511 ft | 429 kts | 160° |
| 2026-05-04 13:48 | 39.72669 | 115.60841 | 21257 ft | 426 kts | 148° |
| 2026-05-04 13:49 | 39.70494 | 115.63379 | 20975 ft | 417 kts | 135° |